Friday, November 24, 2017, 12:18 AM GMT
Back to Local

CYTR, Trenton, Ont.

Location: , , Canada Lat: 44.117
Local Time: 12:18 AM GMT ( 0:18 GMT) Lon: -77.533
Time Zone: GMT Elev: 278 ft

Show me the last for .
Show Decoded

2017-11-24 00:00 METAR CYTR 240000Z 25013G18KT 15SM OVC038 04/M01 A2990 RMK SC8 SLP131 =
2017-11-23 23:00 METAR CYTR 232300Z 24011KT 15SM OVC025 04/M01 A2991 RMK SC8 SLP133 =
2017-11-23 22:00 METAR CYTR 232200Z 24008KT 15SM BKN022 BKN046 OVC075 03/M01 A2991 RMK SC6SC1AC1
                 SLP133 =
2017-11-23 21:44 METAR CYTR 232144Z 24009G15KT 15SM BKN024 OVC075 03/M02 A2991 RMK SC5AC3 SLP133
                 =
2017-11-23 21:00 METAR CYTR 232100Z 24011KT 15SM FEW054 OVC083 03/M03 A2992 RMK SC2AC6 SLP137 =
2017-11-23 20:00 METAR CYTR 232000Z 23014KT 15SM SCT028 OVC057 03/M03 A2993 RMK SC3SC5 SLP142 =
2017-11-23 19:00 METAR CYTR 231900Z 24013KT 15SM SCT030 OVC063 03/M03 A2995 RMK SC3SC5 SLP149 =
2017-11-23 18:00 METAR CYTR 231800Z 24012KT 15SM SCT030 OVC071 03/M03 A2998 RMK SC3AC5 SLP157 =
2017-11-23 17:00 METAR CYTR 231700Z 23004KT 15SM FEW041 OVC091 01/M03 A3001 RMK SC2AC6 SLP168 =
2017-11-23 16:00 METAR CYTR 231600Z 20002KT 15SM BKN038 OVC096 M00/M03 A3004 RMK SC6AC2 SLP179 =
2017-11-23 15:00 METAR CYTR 231500Z 00000KT 15SM OVC038 M02/M05 A3007 RMK SC8 SLP190 =
2017-11-23 14:00 METAR CYTR 231400Z 00000KT 15SM BKN031 OVC110 M03/M07 A3010 RMK SC6AC2 SLP199 =
2017-11-23 13:00 METAR CYTR 231300Z 04002KT 15SM OVC031 M04/M07 A3011 RMK SC8 SLP202 =
2017-11-23 12:00 METAR CYTR 231200Z 00000KT 15SM OVC033 M04/M08 A3011 RMK SC8 SLP204 =
2017-11-23 11:00 METAR CYTR 231100Z 07003KT 15SM OVC031 M05/M08 A3013 RMK SC8 SLP209 =
2017-11-23 10:00 METAR CYTR 231000Z 04002KT 15SM OVC033 M05/M08 A3016 RMK SC8 SLP218 =
2017-11-23 09:00 METAR CYTR 230900Z 00000KT 15SM OVC035 M06/M08 A3016 RMK SC8 SLP218 =
2017-11-23 08:00 METAR CYTR 230800Z 28002KT 15SM BKN039 M07/M08 A3017 RMK SC6 FROIN SLP223 =
2017-11-23 07:00 METAR CYTR 230700Z 00000KT 15SM SKC M07/M09 A3017 RMK FROIN SLP221 =
2017-11-23 06:00 METAR CYTR 230600Z 30003KT 15SM FEW200 M07/M09 A3017 RMK CI2 SLP222 =
2017-11-23 05:00 METAR CYTR 230500Z 32003KT 15SM SKC M06/M09 A3018 RMK SLP227 =
2017-11-23 04:00 METAR CYTR 230400Z 28003KT 15SM SKC M07/M09 A3020 RMK SLP232 =
2017-11-23 03:00 METAR CYTR 230300Z 29003KT 15SM FEW027 M06/M09 A3020 RMK SC1 SLP232 =
2017-11-23 02:00 METAR CYTR 230200Z 28003KT 15SM FEW027 M06/M09 A3020 RMK SC1 SLP234 =
2017-11-23 01:00 METAR CYTR 230100Z 30005KT 15SM FEW027 M05/M09 A3020 RMK SC2 SLP232 =

Support USWX by starting your Amazon purchase here.